sensor_id;sensor_type;location;lat;lon;timestamp;temperature;humidity
8717;DHT22;4395;48.554;8.820;2022-12-10T05:35:33;0.70;99.90
8717;DHT22;4395;48.554;8.820;2022-12-10T05:37:36;0.60;99.90
8717;DHT22;4395;48.554;8.820;2022-12-10T05:39:39;0.60;99.90
8717;DHT22;4395;48.554;8.820;2022-12-10T05:41:42;0.60;99.90
8717;DHT22;4395;48.554;8.820;2022-12-10T05:43:48;0.70;99.90
8717;DHT22;4395;48.554;8.820;2022-12-10T05:45:51;0.70;99.90
8717;DHT22;4395;48.554;8.820;2022-12-10T05:47:54;0.60;99.90
8717;DHT22;4395;48.554;8.820;2022-12-10T05:49:57;0.70;99.90
8717;DHT22;4395;48.554;8.820;2022-12-10T05:52:02;0.70;99.90
8717;DHT22;4395;48.554;8.820;2022-12-10T05:54:06;0.70;99.90
8717;DHT22;4395;48.554;8.820;2022-12-10T05:56:12;0.60;99.90
8717;DHT22;4395;48.554;8.820;2022-12-10T05:58:17;0.60;99.90
8717;DHT22;4395;48.554;8.820;2022-12-10T06:00:21;0.60;99.90
8717;DHT22;4395;48.554;8.820;2022-12-10T06:02:25;0.60;99.90
8717;DHT22;4395;48.554;8.820;2022-12-10T06:04:28;0.60;99.90
8717;DHT22;4395;48.554;8.820;2022-12-10T06:06:33;0.50;99.90
8717;DHT22;4395;48.554;8.820;2022-12-10T06:08:39;0.60;99.90
8717;DHT22;4395;48.554;8.820;2022-12-10T06:10:43;0.60;99.90
8717;DHT22;4395;48.554;8.820;2022-12-10T06:12:46;0.60;99.90
8717;DHT22;4395;48.554;8.820;2022-12-10T06:14:49;0.70;99.90
8717;DHT22;4395;48.554;8.820;2022-12-10T06:16:52;0.70;99.90
8717;DHT22;4395;48.554;8.820;2022-12-10T06:18:56;0.80;99.90
8717;DHT22;4395;48.554;8.820;2022-12-10T06:21:02;0.70;99.90
8717;DHT22;4395;48.554;8.820;2022-12-10T06:23:06;0.60;99.90
8717;DHT22;4395;48.554;8.820;2022-12-10T06:25:11;0.60;99.90
8717;DHT22;4395;48.554;8.820;2022-12-10T06:27:14;0.60;99.90
8717;DHT22;4395;48.554;8.820;2022-12-10T06:29:18;0.70;99.90
8717;DHT22;4395;48.554;8.820;2022-12-10T06:31:21;0.60;99.90
8717;DHT22;4395;48.554;8.820;2022-12-10T06:33:25;0.60;99.90
8717;DHT22;4395;48.554;8.820;2022-12-10T06:35:28;0.60;99.90
8717;DHT22;4395;48.554;8.820;2022-12-10T06:37:32;0.70;99.90
8717;DHT22;4395;48.554;8.820;2022-12-10T06:39:35;0.60;99.90
8717;DHT22;4395;48.554;8.820;2022-12-10T06:41:39;0.60;99.90
8717;DHT22;4395;48.554;8.820;2022-12-10T06:43:45;0.50;99.90
8717;DHT22;4395;48.554;8.820;2022-12-10T06:45:48;0.50;99.90
8717;DHT22;4395;48.554;8.820;2022-12-10T06:47:51;0.50;99.90
8717;DHT22;4395;48.554;8.820;2022-12-10T06:49:55;0.50;99.90
8717;DHT22;4395;48.554;8.820;2022-12-10T06:51:58;0.50;99.90
8717;DHT22;4395;48.554;8.820;2022-12-10T06:54:01;0.30;99.90
8717;DHT22;4395;48.554;8.820;2022-12-10T06:56:06;1.30;99.90
8717;DHT22;4395;48.554;8.820;2022-12-10T06:58:12;3.60;99.90
8717;DHT22;4395;48.554;8.820;2022-12-10T07:00:15;4.00;99.90
8717;DHT22;4395;48.554;8.820;2022-12-10T07:02:23;3.90;99.90
8717;DHT22;4395;48.554;8.820;2022-12-10T07:04:26;4.00;99.90
8717;DHT22;4395;48.554;8.820;2022-12-10T07:06:31;2.50;99.90
8717;DHT22;4395;48.554;8.820;2022-12-10T07:08:35;1.90;99.90
8717;DHT22;4395;48.554;8.820;2022-12-10T07:10:39;1.30;99.90
8717;DHT22;4395;48.554;8.820;2022-12-10T07:12:42;1.10;99.90
8717;DHT22;4395;48.554;8.820;2022-12-10T07:14:47;0.90;99.90
8717;DHT22;4395;48.554;8.820;2022-12-10T07:16:50;0.70;99.90
8717;DHT22;4395;48.554;8.820;2022-12-10T07:18:54;0.60;99.90
8717;DHT22;4395;48.554;8.820;2022-12-10T07:20:58;0.50;99.90
8717;DHT22;4395;48.554;8.820;2022-12-10T07:23:02;0.50;99.90
8717;DHT22;4395;48.554;8.820;2022-12-10T07:25:05;0.50;99.90
8717;DHT22;4395;48.554;8.820;2022-12-10T07:27:09;0.30;99.90
8717;DHT22;4395;48.554;8.820;2022-12-10T07:29:14;0.30;99.90
8717;DHT22;4395;48.554;8.820;2022-12-10T07:31:20;0.20;99.90
8717;DHT22;4395;48.554;8.820;2022-12-10T07:33:24;0.20;99.90
8717;DHT22;4395;48.554;8.820;2022-12-10T07:35:28;0.30;99.90
8717;DHT22;4395;48.554;8.820;2022-12-10T07:37:31;0.20;99.90
8717;DHT22;4395;48.554;8.820;2022-12-10T07:39:34;0.20;99.90
8717;DHT22;4395;48.554;8.820;2022-12-10T07:41:37;0.20;99.90
8717;DHT22;4395;48.554;8.820;2022-12-10T07:43:42;0.30;99.90
8717;DHT22;4395;48.554;8.820;2022-12-10T07:45:46;0.30;99.90
8717;DHT22;4395;48.554;8.820;2022-12-10T07:47:50;0.30;99.90
8717;DHT22;4395;48.554;8.820;2022-12-10T07:49:54;0.20;99.90
8717;DHT22;4395;48.554;8.820;2022-12-10T07:51:57;0.20;99.90
8717;DHT22;4395;48.554;8.820;2022-12-10T07:54:00;0.10;99.90
8717;DHT22;4395;48.554;8.820;2022-12-10T07:56:04;0.20;99.90
8717;DHT22;4395;48.554;8.820;2022-12-10T07:58:07;0.20;99.90
8717;DHT22;4395;48.554;8.820;2022-12-10T08:00:12;0.30;99.90
8717;DHT22;4395;48.554;8.820;2022-12-10T08:02:15;0.30;99.90
8717;DHT22;4395;48.554;8.820;2022-12-10T08:04:20;0.30;99.90
8717;DHT22;4395;48.554;8.820;2022-12-10T08:06:24;0.40;99.90
8717;DHT22;4395;48.554;8.820;2022-12-10T08:08:28;0.40;99.90
8717;DHT22;4395;48.554;8.820;2022-12-10T08:10:33;0.20;99.90
8717;DHT22;4395;48.554;8.820;2022-12-10T08:12:36;0.30;99.90
8717;DHT22;4395;48.554;8.820;2022-12-10T08:14:39;0.40;99.90
8717;DHT22;4395;48.554;8.820;2022-12-10T08:16:43;0.50;99.90
8717;DHT22;4395;48.554;8.820;2022-12-10T08:18:46;0.50;99.90
8717;DHT22;4395;48.554;8.820;2022-12-10T08:20:51;0.40;99.90
8717;DHT22;4395;48.554;8.820;2022-12-10T08:22:54;0.40;99.90
8717;DHT22;4395;48.554;8.820;2022-12-10T08:24:57;0.50;99.90
8717;DHT22;4395;48.554;8.820;2022-12-10T08:27:00;0.40;99.90
8717;DHT22;4395;48.554;8.820;2022-12-10T08:29:03;0.50;99.90
8717;DHT22;4395;48.554;8.820;2022-12-10T08:31:08;0.50;99.90
8717;DHT22;4395;48.554;8.820;2022-12-10T08:33:13;0.50;99.90
8717;DHT22;4395;48.554;8.820;2022-12-10T08:35:17;0.50;99.90
8717;DHT22;4395;48.554;8.820;2022-12-10T08:37:21;0.50;99.90
8717;DHT22;4395;48.554;8.820;2022-12-10T08:39:24;0.60;99.90
8717;DHT22;4395;48.554;8.820;2022-12-10T08:41:28;0.60;99.90
8717;DHT22;4395;48.554;8.820;2022-12-10T08:43:31;0.50;99.90
8717;DHT22;4395;48.554;8.820;2022-12-10T08:45:34;0.60;99.90
8717;DHT22;4395;48.554;8.820;2022-12-10T08:47:37;0.60;99.90
8717;DHT22;4395;48.554;8.820;2022-12-10T08:49:41;0.60;99.90
8717;DHT22;4395;48.554;8.820;2022-12-10T08:51:44;0.60;99.90
8717;DHT22;4395;48.554;8.820;2022-12-10T08:53:49;0.50;99.90
8717;DHT22;4395;48.554;8.820;2022-12-10T08:55:53;0.60;99.90
8717;DHT22;4395;48.554;8.820;2022-12-10T08:57:57;0.50;99.90
8717;DHT22;4395;48.554;8.820;2022-12-10T09:00:00;0.50;99.90
8717;DHT22;4395;48.554;8.820;2022-12-10T09:02:03;0.60;99.90
8717;DHT22;4395;48.554;8.820;2022-12-10T09:04:06;0.70;99.90
8717;DHT22;4395;48.554;8.820;2022-12-10T09:06:11;0.70;99.90
8717;DHT22;4395;48.554;8.820;2022-12-10T09:08:15;0.70;99.90
8717;DHT22;4395;48.554;8.820;2022-12-10T09:10:20;0.70;99.90
8717;DHT22;4395;48.554;8.820;2022-12-10T09:12:23;0.60;99.90
8717;DHT22;4395;48.554;8.820;2022-12-10T09:14:26;0.60;99.90
8717;DHT22;4395;48.554;8.820;2022-12-10T09:16:31;0.70;99.90
8717;DHT22;4395;48.554;8.820;2022-12-10T09:18:36;0.60;99.90
8717;DHT22;4395;48.554;8.820;2022-12-10T09:20:39;0.70;99.90
8717;DHT22;4395;48.554;8.820;2022-12-10T09:22:43;0.60;99.90
8717;DHT22;4395;48.554;8.820;2022-12-10T09:24:46;0.60;99.90
8717;DHT22;4395;48.554;8.820;2022-12-10T09:26:50;0.60;99.90
8717;DHT22;4395;48.554;8.820;2022-12-10T09:28:53;0.60;99.90
8717;DHT22;4395;48.554;8.820;2022-12-10T09:31:00;0.60;99.90
8717;DHT22;4395;48.554;8.820;2022-12-10T09:33:04;0.60;99.90
8717;DHT22;4395;48.554;8.820;2022-12-10T09:35:07;0.60;99.90
8717;DHT22;4395;48.554;8.820;2022-12-10T09:37:10;0.70;99.90
8717;DHT22;4395;48.554;8.820;2022-12-10T09:39:14;0.70;99.90
8717;DHT22;4395;48.554;8.820;2022-12-10T09:41:37;0.70;99.90
8717;DHT22;4395;48.554;8.820;2022-12-10T09:44:03;0.80;99.90
8717;DHT22;4395;48.554;8.820;2022-12-10T09:46:16;0.80;99.90
8717;DHT22;4395;48.554;8.820;2022-12-10T09:48:31;0.80;99.90
8717;DHT22;4395;48.554;8.820;2022-12-10T09:50:44;0.80;99.90
8717;DHT22;4395;48.554;8.820;2022-12-10T09:52:52;0.70;99.90
8717;DHT22;4395;48.554;8.820;2022-12-10T09:54:59;0.70;99.90
8717;DHT22;4395;48.554;8.820;2022-12-10T09:57:07;0.70;99.90
8717;DHT22;4395;48.554;8.820;2022-12-10T09:59:18;0.70;99.90
8717;DHT22;4395;48.554;8.820;2022-12-10T10:01:25;0.60;99.90
8717;DHT22;4395;48.554;8.820;2022-12-10T10:03:33;0.60;99.90
8717;DHT22;4395;48.554;8.820;2022-12-10T10:05:41;0.70;99.90
8717;DHT22;4395;48.554;8.820;2022-12-10T10:07:48;0.70;99.90
8717;DHT22;4395;48.554;8.820;2022-12-10T10:09:58;0.70;99.90
8717;DHT22;4395;48.554;8.820;2022-12-10T10:12:02;0.70;99.90
8717;DHT22;4395;48.554;8.820;2022-12-10T10:14:17;0.70;99.90
8717;DHT22;4395;48.554;8.820;2022-12-10T10:16:25;0.70;99.90
8717;DHT22;4395;48.554;8.820;2022-12-10T10:18:34;0.70;99.90
8717;DHT22;4395;48.554;8.820;2022-12-10T10:20:41;0.80;99.90
8717;DHT22;4395;48.554;8.820;2022-12-10T10:22:44;0.90;99.90
8717;DHT22;4395;48.554;8.820;2022-12-10T10:24:48;1.00;99.90
8717;DHT22;4395;48.554;8.820;2022-12-10T10:26:53;1.00;99.90
8717;DHT22;4395;48.554;8.820;2022-12-10T10:29:02;1.00;99.90
8717;DHT22;4395;48.554;8.820;2022-12-10T10:31:16;0.90;99.90
8717;DHT22;4395;48.554;8.820;2022-12-10T10:33:21;0.80;99.90
8717;DHT22;4395;48.554;8.820;2022-12-10T10:35:30;0.80;99.90
8717;DHT22;4395;48.554;8.820;2022-12-10T10:37:40;0.90;99.90
8717;DHT22;4395;48.554;8.820;2022-12-10T10:39:48;1.00;99.90
8717;DHT22;4395;48.554;8.820;2022-12-10T10:41:53;1.00;99.90
8717;DHT22;4395;48.554;8.820;2022-12-10T10:44:00;1.00;99.90
8717;DHT22;4395;48.554;8.820;2022-12-10T10:46:12;0.90;99.90
8717;DHT22;4395;48.554;8.820;2022-12-10T10:48:19;1.00;99.90
8717;DHT22;4395;48.554;8.820;2022-12-10T10:50:24;1.00;99.90
8717;DHT22;4395;48.554;8.820;2022-12-10T10:52:29;1.10;99.90
8717;DHT22;4395;48.554;8.820;2022-12-10T10:54:38;1.20;99.90
8717;DHT22;4395;48.554;8.820;2022-12-10T10:56:43;1.20;99.90
8717;DHT22;4395;48.554;8.820;2022-12-10T10:58:52;1.20;99.90
8717;DHT22;4395;48.554;8.820;2022-12-10T11:01:00;1.20;99.90
8717;DHT22;4395;48.554;8.820;2022-12-10T11:03:07;1.30;99.90
8717;DHT22;4395;48.554;8.820;2022-12-10T11:05:18;1.30;99.90
8717;DHT22;4395;48.554;8.820;2022-12-10T11:07:26;1.40;99.90
8717;DHT22;4395;48.554;8.820;2022-12-10T11:09:36;1.40;99.90
8717;DHT22;4395;48.554;8.820;2022-12-10T11:11:41;1.50;99.90
8717;DHT22;4395;48.554;8.820;2022-12-10T11:13:44;1.50;99.90
8717;DHT22;4395;48.554;8.820;2022-12-10T11:15:54;1.50;99.90
8717;DHT22;4395;48.554;8.820;2022-12-10T11:18:00;1.40;99.90
8717;DHT22;4395;48.554;8.820;2022-12-10T11:20:17;1.30;99.90
8717;DHT22;4395;48.554;8.820;2022-12-10T11:22:24;1.50;99.90
8717;DHT22;4395;48.554;8.820;2022-12-10T11:24:29;1.30;99.90
8717;DHT22;4395;48.554;8.820;2022-12-10T11:26:43;1.40;99.90
8717;DHT22;4395;48.554;8.820;2022-12-10T11:29:05;1.40;99.90
8717;DHT22;4395;48.554;8.820;2022-12-10T11:31:33;1.50;99.90
8717;DHT22;4395;48.554;8.820;2022-12-10T11:33:47;1.40;99.90
8717;DHT22;4395;48.554;8.820;2022-12-10T11:36:02;1.40;99.90
8717;DHT22;4395;48.554;8.820;2022-12-10T11:38:21;1.30;99.90
8717;DHT22;4395;48.554;8.820;2022-12-10T11:40:34;1.50;99.90
8717;DHT22;4395;48.554;8.820;2022-12-10T11:42:50;1.50;99.90
8717;DHT22;4395;48.554;8.820;2022-12-10T11:45:02;1.50;99.90
8717;DHT22;4395;48.554;8.820;2022-12-10T11:47:28;1.60;99.90
8717;DHT22;4395;48.554;8.820;2022-12-10T11:49:39;1.50;99.90
8717;DHT22;4395;48.554;8.820;2022-12-10T11:51:53;1.60;99.90
8717;DHT22;4395;48.554;8.820;2022-12-10T11:54:26;1.80;99.90
8717;DHT22;4395;48.554;8.820;2022-12-10T11:56:39;1.80;99.90
8717;DHT22;4395;48.554;8.820;2022-12-10T11:58:57;1.90;99.90
8717;DHT22;4395;48.554;8.820;2022-12-10T12:01:12;1.90;99.90
8717;DHT22;4395;48.554;8.820;2022-12-10T12:03:32;1.80;99.90
8717;DHT22;4395;48.554;8.820;2022-12-10T12:05:52;1.70;99.90
8717;DHT22;4395;48.554;8.820;2022-12-10T12:08:15;1.70;99.90
8717;DHT22;4395;48.554;8.820;2022-12-10T12:10:41;1.60;99.90
8717;DHT22;4395;48.554;8.820;2022-12-10T12:13:00;1.70;99.90
8717;DHT22;4395;48.554;8.820;2022-12-10T12:15:15;1.60;99.90
8717;DHT22;4395;48.554;8.820;2022-12-10T12:17:23;1.70;99.90
8717;DHT22;4395;48.554;8.820;2022-12-10T12:19:34;1.70;99.90
8717;DHT22;4395;48.554;8.820;2022-12-10T12:21:40;1.80;99.90
8717;DHT22;4395;48.554;8.820;2022-12-10T12:23:50;1.80;99.90
8717;DHT22;4395;48.554;8.820;2022-12-10T12:26:07;1.70;99.90
8717;DHT22;4395;48.554;8.820;2022-12-10T12:28:19;1.60;99.90
8717;DHT22;4395;48.554;8.820;2022-12-10T12:30:24;1.70;99.90
8717;DHT22;4395;48.554;8.820;2022-12-10T12:32:31;1.50;99.90
8717;DHT22;4395;48.554;8.820;2022-12-10T12:34:46;1.50;99.90
8717;DHT22;4395;48.554;8.820;2022-12-10T12:37:00;1.50;99.90
8717;DHT22;4395;48.554;8.820;2022-12-10T12:39:13;1.60;99.90
8717;DHT22;4395;48.554;8.820;2022-12-10T12:41:40;1.70;99.90
8717;DHT22;4395;48.554;8.820;2022-12-10T12:43:51;1.60;99.90
8717;DHT22;4395;48.554;8.820;2022-12-10T12:45:57;1.60;99.90
8717;DHT22;4395;48.554;8.820;2022-12-10T12:48:09;1.60;99.90
8717;DHT22;4395;48.554;8.820;2022-12-10T12:50:25;1.70;99.90
8717;DHT22;4395;48.554;8.820;2022-12-10T12:52:35;1.70;99.90
8717;DHT22;4395;48.554;8.820;2022-12-10T12:54:44;1.60;99.90
8717;DHT22;4395;48.554;8.820;2022-12-10T12:56:59;1.60;99.90
8717;DHT22;4395;48.554;8.820;2022-12-10T12:59:11;1.60;99.90
8717;DHT22;4395;48.554;8.820;2022-12-10T13:01:28;1.50;99.90
8717;DHT22;4395;48.554;8.820;2022-12-10T13:03:38;1.70;99.90
8717;DHT22;4395;48.554;8.820;2022-12-10T13:05:43;1.90;99.90
8717;DHT22;4395;48.554;8.820;2022-12-10T13:08:15;1.80;99.90
8717;DHT22;4395;48.554;8.820;2022-12-10T13:10:28;1.80;99.90
8717;DHT22;4395;48.554;8.820;2022-12-10T13:12:32;1.70;99.90
8717;DHT22;4395;48.554;8.820;2022-12-10T13:15:00;1.60;99.90
8717;DHT22;4395;48.554;8.820;2022-12-10T13:17:26;1.70;99.90
8717;DHT22;4395;48.554;8.820;2022-12-10T13:19:31;1.70;99.90
8717;DHT22;4395;48.554;8.820;2022-12-10T13:21:34;1.70;99.90
8717;DHT22;4395;48.554;8.820;2022-12-10T13:23:47;1.70;99.90
8717;DHT22;4395;48.554;8.820;2022-12-10T13:25:58;1.70;99.90
8717;DHT22;4395;48.554;8.820;2022-12-10T13:28:20;1.60;99.90
8717;DHT22;4395;48.554;8.820;2022-12-10T13:30:30;1.60;99.90
8717;DHT22;4395;48.554;8.820;2022-12-10T13:32:46;1.50;99.90
8717;DHT22;4395;48.554;8.820;2022-12-10T13:35:15;1.50;99.90
8717;DHT22;4395;48.554;8.820;2022-12-10T13:37:30;1.50;99.90
8717;DHT22;4395;48.554;8.820;2022-12-10T13:39:35;1.50;99.90
8717;DHT22;4395;48.554;8.820;2022-12-10T13:42:20;1.30;99.90
8717;DHT22;4395;48.554;8.820;2022-12-10T13:44:46;1.30;99.90
8717;DHT22;4395;48.554;8.820;2022-12-10T13:46:53;1.30;99.90
8717;DHT22;4395;48.554;8.820;2022-12-10T13:49:00;1.20;99.90
8717;DHT22;4395;48.554;8.820;2022-12-10T13:51:28;1.30;99.90
8717;DHT22;4395;48.554;8.820;2022-12-10T13:53:46;1.30;99.90
8717;DHT22;4395;48.554;8.820;2022-12-10T13:56:00;1.30;99.90
8717;DHT22;4395;48.554;8.820;2022-12-10T13:58:24;1.20;99.90
8717;DHT22;4395;48.554;8.820;2022-12-10T14:00:36;1.20;99.90
8717;DHT22;4395;48.554;8.820;2022-12-10T14:05:34;1.30;99.90
8717;DHT22;4395;48.554;8.820;2022-12-10T14:07:44;1.30;99.90
8717;DHT22;4395;48.554;8.820;2022-12-10T14:09:52;1.30;99.90
8717;DHT22;4395;48.554;8.820;2022-12-10T14:11:58;1.30;99.90
8717;DHT22;4395;48.554;8.820;2022-12-10T14:14:09;1.20;99.90
8717;DHT22;4395;48.554;8.820;2022-12-10T14:16:20;1.30;99.90
8717;DHT22;4395;48.554;8.820;2022-12-10T14:18:27;1.20;99.90
8717;DHT22;4395;48.554;8.820;2022-12-10T14:20:33;1.20;99.90
8717;DHT22;4395;48.554;8.820;2022-12-10T14:22:38;1.20;99.90
8717;DHT22;4395;48.554;8.820;2022-12-10T14:24:49;1.10;99.90
8717;DHT22;4395;48.554;8.820;2022-12-10T14:26:57;1.10;99.90
8717;DHT22;4395;48.554;8.820;2022-12-10T14:29:16;1.20;99.90
8717;DHT22;4395;48.554;8.820;2022-12-10T14:31:31;1.20;99.90
8717;DHT22;4395;48.554;8.820;2022-12-10T14:33:36;1.20;99.90
8717;DHT22;4395;48.554;8.820;2022-12-10T14:35:40;1.20;99.90
8717;DHT22;4395;48.554;8.820;2022-12-10T14:37:46;1.10;99.90
8717;DHT22;4395;48.554;8.820;2022-12-10T14:39:51;1.10;99.90
8717;DHT22;4395;48.554;8.820;2022-12-10T14:41:57;1.10;99.90
8717;DHT22;4395;48.554;8.820;2022-12-10T14:44:02;1.10;99.90
8717;DHT22;4395;48.554;8.820;2022-12-10T14:46:13;1.00;99.90
8717;DHT22;4395;48.554;8.820;2022-12-10T14:48:18;1.00;99.90
8717;DHT22;4395;48.554;8.820;2022-12-10T14:50:21;1.10;99.90
8717;DHT22;4395;48.554;8.820;2022-12-10T14:52:31;1.10;99.90
8717;DHT22;4395;48.554;8.820;2022-12-10T14:54:37;1.00;99.90
8717;DHT22;4395;48.554;8.820;2022-12-10T14:56:41;0.90;99.90
8717;DHT22;4395;48.554;8.820;2022-12-10T14:58:47;0.80;99.90
8717;DHT22;4395;48.554;8.820;2022-12-10T15:00:51;0.70;99.90
8717;DHT22;4395;48.554;8.820;2022-12-10T15:02:58;0.70;99.90
8717;DHT22;4395;48.554;8.820;2022-12-10T15:05:04;0.60;99.90
8717;DHT22;4395;48.554;8.820;2022-12-10T15:07:15;0.60;99.90
8717;DHT22;4395;48.554;8.820;2022-12-10T15:09:24;0.60;99.90
8717;DHT22;4395;48.554;8.820;2022-12-10T15:11:28;0.70;99.90
8717;DHT22;4395;48.554;8.820;2022-12-10T15:13:34;0.60;99.90
8717;DHT22;4395;48.554;8.820;2022-12-10T15:15:41;0.60;99.90
8717;DHT22;4395;48.554;8.820;2022-12-10T15:17:57;0.60;99.90
8717;DHT22;4395;48.554;8.820;2022-12-10T15:20:03;0.70;99.90
8717;DHT22;4395;48.554;8.820;2022-12-10T15:22:19;0.80;99.90
8717;DHT22;4395;48.554;8.820;2022-12-10T15:24:27;0.70;99.90
8717;DHT22;4395;48.554;8.820;2022-12-10T15:26:35;0.70;99.90
8717;DHT22;4395;48.554;8.820;2022-12-10T15:28:40;0.60;99.90
8717;DHT22;4395;48.554;8.820;2022-12-10T15:30:43;0.50;99.90
8717;DHT22;4395;48.554;8.820;2022-12-10T15:32:52;0.50;99.90
8717;DHT22;4395;48.554;8.820;2022-12-10T15:34:58;0.50;99.90
8717;DHT22;4395;48.554;8.820;2022-12-10T15:37:03;0.50;99.90
8717;DHT22;4395;48.554;8.820;2022-12-10T15:39:15;0.50;99.90
8717;DHT22;4395;48.554;8.820;2022-12-10T15:41:40;0.50;99.90
8717;DHT22;4395;48.554;8.820;2022-12-10T15:43:52;0.50;99.90
8717;DHT22;4395;48.554;8.820;2022-12-10T15:45:59;0.50;99.90
8717;DHT22;4395;48.554;8.820;2022-12-10T15:48:07;0.50;99.90
8717;DHT22;4395;48.554;8.820;2022-12-10T15:50:15;0.50;99.90
8717;DHT22;4395;48.554;8.820;2022-12-10T15:52:21;0.50;99.90
8717;DHT22;4395;48.554;8.820;2022-12-10T15:54:30;0.40;99.90
8717;DHT22;4395;48.554;8.820;2022-12-10T15:56:35;0.30;99.90
8717;DHT22;4395;48.554;8.820;2022-12-10T15:58:39;0.30;99.90
8717;DHT22;4395;48.554;8.820;2022-12-10T16:00:42;0.30;99.90
8717;DHT22;4395;48.554;8.820;2022-12-10T16:02:50;0.20;99.90
8717;DHT22;4395;48.554;8.820;2022-12-10T16:04:55;0.20;99.90
8717;DHT22;4395;48.554;8.820;2022-12-10T16:07:00;0.20;99.90
8717;DHT22;4395;48.554;8.820;2022-12-10T16:09:03;0.20;99.90
8717;DHT22;4395;48.554;8.820;2022-12-10T16:11:14;0.20;99.90
8717;DHT22;4395;48.554;8.820;2022-12-10T16:13:20;0.10;99.90
8717;DHT22;4395;48.554;8.820;2022-12-10T16:15:26;0.10;99.90
8717;DHT22;4395;48.554;8.820;2022-12-10T16:17:31;0.10;99.90
8717;DHT22;4395;48.554;8.820;2022-12-10T16:19:34;0.20;99.90
8717;DHT22;4395;48.554;8.820;2022-12-10T16:21:39;0.10;99.90
8717;DHT22;4395;48.554;8.820;2022-12-10T16:23:44;0.00;99.90
8717;DHT22;4395;48.554;8.820;2022-12-10T16:25:48;0.00;99.90
8717;DHT22;4395;48.554;8.820;2022-12-10T16:27:52;0.10;99.90
8717;DHT22;4395;48.554;8.820;2022-12-10T16:29:55;0.00;99.90
8717;DHT22;4395;48.554;8.820;2022-12-10T16:31:59;0.00;99.90
8717;DHT22;4395;48.554;8.820;2022-12-10T16:34:02;-0.10;99.90
8717;DHT22;4395;48.554;8.820;2022-12-10T16:36:05;-0.10;99.90
8717;DHT22;4395;48.554;8.820;2022-12-10T16:38:09;-0.20;99.90
8717;DHT22;4395;48.554;8.820;2022-12-10T16:40:15;-0.20;99.90
8717;DHT22;4395;48.554;8.820;2022-12-10T16:42:18;-0.20;99.90
8717;DHT22;4395;48.554;8.820;2022-12-10T16:44:22;-0.20;99.90
8717;DHT22;4395;48.554;8.820;2022-12-10T16:46:25;-0.20;99.90
8717;DHT22;4395;48.554;8.820;2022-12-10T16:48:28;-0.30;99.90
8717;DHT22;4395;48.554;8.820;2022-12-10T16:50:32;-0.40;99.90
8717;DHT22;4395;48.554;8.820;2022-12-10T16:52:36;-0.40;99.90
8717;DHT22;4395;48.554;8.820;2022-12-10T16:54:40;-0.50;99.90
8717;DHT22;4395;48.554;8.820;2022-12-10T16:56:44;-0.50;99.90
8717;DHT22;4395;48.554;8.820;2022-12-10T16:58:47;-0.40;99.90
8717;DHT22;4395;48.554;8.820;2022-12-10T17:00:52;-0.40;99.90
8717;DHT22;4395;48.554;8.820;2022-12-10T17:02:57;-0.50;99.90
8717;DHT22;4395;48.554;8.820;2022-12-10T17:05:14;-0.40;99.90
8717;DHT22;4395;48.554;8.820;2022-12-10T17:07:18;-0.40;99.90
8717;DHT22;4395;48.554;8.820;2022-12-10T17:09:22;-0.40;99.90
8717;DHT22;4395;48.554;8.820;2022-12-10T17:11:28;-0.40;99.90
8717;DHT22;4395;48.554;8.820;2022-12-10T17:13:51;-0.40;99.90
8717;DHT22;4395;48.554;8.820;2022-12-10T17:15:55;-0.40;99.90
8717;DHT22;4395;48.554;8.820;2022-12-10T17:17:59;-0.30;99.90
8717;DHT22;4395;48.554;8.820;2022-12-10T17:20:14;-0.40;99.90
8717;DHT22;4395;48.554;8.820;2022-12-10T17:22:19;-0.30;99.90
8717;DHT22;4395;48.554;8.820;2022-12-10T17:24:22;-0.40;99.90
8717;DHT22;4395;48.554;8.820;2022-12-10T17:26:28;-0.40;99.90
8717;DHT22;4395;48.554;8.820;2022-12-10T17:28:32;-0.50;99.90
8717;DHT22;4395;48.554;8.820;2022-12-10T17:30:37;-0.50;99.90
8717;DHT22;4395;48.554;8.820;2022-12-10T17:32:41;-0.40;99.90
8717;DHT22;4395;48.554;8.820;2022-12-10T17:34:44;-0.50;99.90
8717;DHT22;4395;48.554;8.820;2022-12-10T17:36:47;-0.50;99.90
8717;DHT22;4395;48.554;8.820;2022-12-10T17:38:50;-0.50;99.90
8717;DHT22;4395;48.554;8.820;2022-12-10T17:40:53;-0.50;99.90
8717;DHT22;4395;48.554;8.820;2022-12-10T17:42:57;-0.50;99.90
8717;DHT22;4395;48.554;8.820;2022-12-10T17:45:00;-0.60;99.90
8717;DHT22;4395;48.554;8.820;2022-12-10T17:47:15;-0.50;99.90
8717;DHT22;4395;48.554;8.820;2022-12-10T17:49:20;-0.50;99.90
8717;DHT22;4395;48.554;8.820;2022-12-10T17:51:23;-0.50;99.90
8717;DHT22;4395;48.554;8.820;2022-12-10T17:53:27;-0.50;99.90
8717;DHT22;4395;48.554;8.820;2022-12-10T17:55:30;-0.50;99.90
8717;DHT22;4395;48.554;8.820;2022-12-10T17:57:33;-0.50;99.90
8717;DHT22;4395;48.554;8.820;2022-12-10T17:59:36;-0.50;99.90
8717;DHT22;4395;48.554;8.820;2022-12-10T18:01:40;-0.50;99.90
8717;DHT22;4395;48.554;8.820;2022-12-10T18:03:50;-0.50;99.90
8717;DHT22;4395;48.554;8.820;2022-12-10T18:05:54;-0.50;99.90
8717;DHT22;4395;48.554;8.820;2022-12-10T18:07:57;-0.50;99.90
8717;DHT22;4395;48.554;8.820;2022-12-10T18:10:01;-0.50;99.90
8717;DHT22;4395;48.554;8.820;2022-12-10T18:12:08;-0.50;99.90
8717;DHT22;4395;48.554;8.820;2022-12-10T18:14:11;-0.50;99.90
8717;DHT22;4395;48.554;8.820;2022-12-10T18:16:18;-0.50;99.90
8717;DHT22;4395;48.554;8.820;2022-12-10T18:18:22;-0.50;99.90
8717;DHT22;4395;48.554;8.820;2022-12-10T18:20:30;-0.50;99.90
8717;DHT22;4395;48.554;8.820;2022-12-10T18:22:34;-0.50;99.90
8717;DHT22;4395;48.554;8.820;2022-12-10T18:24:37;-0.60;99.90
8717;DHT22;4395;48.554;8.820;2022-12-10T18:26:42;-0.50;99.90
8717;DHT22;4395;48.554;8.820;2022-12-10T18:28:51;-0.60;99.90
8717;DHT22;4395;48.554;8.820;2022-12-10T18:30:55;-0.60;99.90
8717;DHT22;4395;48.554;8.820;2022-12-10T18:33:04;-0.50;99.90
8717;DHT22;4395;48.554;8.820;2022-12-10T18:35:08;-0.50;99.90
8717;DHT22;4395;48.554;8.820;2022-12-10T18:37:13;-0.60;99.90
8717;DHT22;4395;48.554;8.820;2022-12-10T18:39:19;-0.60;99.90
8717;DHT22;4395;48.554;8.820;2022-12-10T18:41:24;-0.50;99.90
8717;DHT22;4395;48.554;8.820;2022-12-10T18:43:27;-0.60;99.90
8717;DHT22;4395;48.554;8.820;2022-12-10T18:45:31;-0.60;99.90
8717;DHT22;4395;48.554;8.820;2022-12-10T18:47:34;-0.50;99.90
8717;DHT22;4395;48.554;8.820;2022-12-10T18:49:37;-0.60;99.90
8717;DHT22;4395;48.554;8.820;2022-12-10T18:51:41;-0.60;99.90
8717;DHT22;4395;48.554;8.820;2022-12-10T18:53:46;-0.50;99.90
8717;DHT22;4395;48.554;8.820;2022-12-10T18:55:49;-0.50;99.90
8717;DHT22;4395;48.554;8.820;2022-12-10T18:57:53;-0.50;99.90
8717;DHT22;4395;48.554;8.820;2022-12-10T19:00:13;-0.50;99.90
8717;DHT22;4395;48.554;8.820;2022-12-10T19:02:18;-0.60;99.90
8717;DHT22;4395;48.554;8.820;2022-12-10T19:04:22;-0.60;99.90
8717;DHT22;4395;48.554;8.820;2022-12-10T19:06:27;-0.60;99.90
8717;DHT22;4395;48.554;8.820;2022-12-10T19:08:31;-0.60;99.90
8717;DHT22;4395;48.554;8.820;2022-12-10T19:10:55;-0.60;99.90
8717;DHT22;4395;48.554;8.820;2022-12-10T19:12:59;-0.50;99.90
8717;DHT22;4395;48.554;8.820;2022-12-10T19:15:03;-0.50;99.90
8717;DHT22;4395;48.554;8.820;2022-12-10T19:17:08;-0.50;99.90
8717;DHT22;4395;48.554;8.820;2022-12-10T19:19:14;-0.50;99.90
8717;DHT22;4395;48.554;8.820;2022-12-10T19:21:19;-0.50;99.90
8717;DHT22;4395;48.554;8.820;2022-12-10T19:23:22;-0.40;99.90
8717;DHT22;4395;48.554;8.820;2022-12-10T19:25:25;-0.30;99.90
8717;DHT22;4395;48.554;8.820;2022-12-10T19:27:30;-0.30;99.90
8717;DHT22;4395;48.554;8.820;2022-12-10T19:29:33;-0.40;99.90
8717;DHT22;4395;48.554;8.820;2022-12-10T19:31:36;-0.30;99.90
8717;DHT22;4395;48.554;8.820;2022-12-10T19:33:39;-0.30;99.90
8717;DHT22;4395;48.554;8.820;2022-12-10T19:35:43;-0.30;99.90
8717;DHT22;4395;48.554;8.820;2022-12-10T19:37:48;-0.30;99.90
8717;DHT22;4395;48.554;8.820;2022-12-10T19:39:58;-0.30;99.90